Time;durP1;ratioP1;P1;durP2;ratioP2;P2;SDS_P1;SDS_P2;PMS_P1;PMS_P2;Temp;Humidity;BMP_temperature;BMP_pressure;BME280_temperature;BME280_humidity;BME280_pressure;Samples;Min_cycle;Max_cycle;Signal;HPM_P1;HPM_P2
2020/12/20 00:01:47;;;;;;;3.45;2.90;;;;;;;;;;5096697;28;20453;-51
2020/12/20 00:04:13;;;;;;;3.33;2.97;;;;;;;;;;5096421;28;20440;-51
2020/12/20 00:06:40;;;;;;;3.63;2.78;;;;;;;;;;5079150;28;20191;-51
2020/12/20 00:09:12;;;;;;;2.78;2.58;;;;;;;;;;5075895;28;20257;-51
2020/12/20 00:11:39;;;;;;;2.92;2.63;;;;;;;;;;5076603;28;20179;-51
2020/12/20 00:14:26;;;;;;;2.90;2.70;;;;;;;;;;5076240;28;20174;-52
2020/12/20 00:16:51;;;;;;;2.60;2.40;;;;;;;;;;5093490;28;20199;-51
2020/12/20 00:19:17;;;;;;;2.88;2.63;;;;;;;;;;5095535;28;20169;-51
2020/12/20 00:21:43;;;;;;;2.78;2.53;;;;;;;;;;5086052;28;20485;-51
2020/12/20 00:24:10;;;;;;;2.50;2.30;;;;;;;;;;5083666;28;20194;-51
2020/12/20 00:26:36;;;;;;;2.70;2.50;;;;;;;;;;5095621;28;20316;-52
2020/12/20 00:29:03;;;;;;;2.80;2.47;;;;;;;;;;5096082;28;20268;-51
2020/12/20 00:31:30;;;;;;;2.28;2.08;;;;;;;;;;5085186;28;20170;-51
2020/12/20 00:33:56;;;;;;;2.60;2.40;;;;;;;;;;5075491;28;20261;-51
2020/12/20 00:36:22;;;;;;;2.58;2.38;;;;;;;;;;5094177;28;20422;-51
2020/12/20 00:38:48;;;;;;;2.42;2.22;;;;;;;;;;5095078;28;20181;-51
2020/12/20 00:41:14;;;;;;;3.08;2.35;;;;;;;;;;5095863;28;20184;-51
2020/12/20 00:43:40;;;;;;;2.50;2.03;;;;;;;;;;5095954;28;20505;-51
2020/12/20 00:46:06;;;;;;;2.30;2.10;;;;;;;;;;5094784;28;20460;-51
2020/12/20 00:48:32;;;;;;;2.30;2.10;;;;;;;;;;5108401;28;20187;-52
2020/12/20 00:51:00;;;;;;;2.55;2.35;;;;;;;;;;5107683;28;20178;-51
2020/12/20 00:53:26;;;;;;;2.30;2.10;;;;;;;;;;5075469;28;20178;-51
2020/12/20 00:55:52;;;;;;;2.50;2.30;;;;;;;;;;5094091;28;20869;-51
2020/12/20 00:58:18;;;;;;;2.50;2.30;;;;;;;;;;5095917;28;20264;-51
2020/12/20 01:00:44;;;;;;;2.40;2.20;;;;;;;;;;5094643;28;20198;-51
2020/12/20 01:03:10;;;;;;;2.05;1.95;;;;;;;;;;5076668;28;20410;-51
2020/12/20 01:05:36;;;;;;;2.17;2.05;;;;;;;;;;5094279;28;20185;-51
2020/12/20 01:08:02;;;;;;;2.22;2.03;;;;;;;;;;5079063;28;20614;-51
2020/12/20 01:10:28;;;;;;;2.05;1.90;;;;;;;;;;5075699;28;20231;-51
2020/12/20 01:12:54;;;;;;;2.30;2.10;;;;;;;;;;5074991;28;20186;-51
2020/12/20 01:15:20;;;;;;;2.10;1.90;;;;;;;;;;5086753;28;20206;-51
2020/12/20 01:17:46;;;;;;;2.15;2.03;;;;;;;;;;5094849;28;20177;-51
2020/12/20 01:20:12;;;;;;;1.95;1.85;;;;;;;;;;5078000;28;20182;-52
2020/12/20 01:22:38;;;;;;;2.08;1.98;;;;;;;;;;5075072;28;20192;-51
2020/12/20 01:25:04;;;;;;;2.55;1.95;;;;;;;;;;5085698;28;20272;-52
2020/12/20 01:27:30;;;;;;;2.42;2.17;;;;;;;;;;5095769;28;20185;-51
2020/12/20 01:29:56;;;;;;;2.10;2.00;;;;;;;;;;5095303;28;20178;-52
2020/12/20 01:32:22;;;;;;;2.83;2.13;;;;;;;;;;5095203;28;20174;-52
2020/12/20 01:34:48;;;;;;;2.13;1.98;;;;;;;;;;5094355;28;20213;-51
2020/12/20 01:37:14;;;;;;;1.85;1.75;;;;;;;;;;5094731;28;20599;-51
2020/12/20 01:39:40;;;;;;;2.00;1.90;;;;;;;;;;5095267;28;20200;-51
2020/12/20 01:42:06;;;;;;;2.35;2.15;;;;;;;;;;5095300;28;20174;-51
2020/12/20 01:44:32;;;;;;;1.98;1.70;;;;;;;;;;5094177;28;20182;-51
2020/12/20 01:46:58;;;;;;;1.80;1.70;;;;;;;;;;5080645;28;20186;-51
2020/12/20 01:49:24;;;;;;;2.20;2.00;;;;;;;;;;5095944;28;20194;-52
2020/12/20 01:51:52;;;;;;;1.98;1.80;;;;;;;;;;5094871;28;20182;-51
2020/12/20 01:54:18;;;;;;;1.70;1.60;;;;;;;;;;5092696;28;20178;-52
2020/12/20 01:56:44;;;;;;;1.98;1.88;;;;;;;;;;5095123;28;20452;-51
2020/12/20 01:59:11;;;;;;;1.63;1.52;;;;;;;;;;5094728;28;20182;-50
2020/12/20 02:01:37;;;;;;;1.85;1.70;;;;;;;;;;5098878;28;20250;-51
2020/12/20 02:04:03;;;;;;;1.70;1.60;;;;;;;;;;5097405;28;20264;-51
2020/12/20 02:06:29;;;;;;;1.50;1.40;;;;;;;;;;5098478;28;20170;-51
2020/12/20 02:08:55;;;;;;;1.80;1.70;;;;;;;;;;5104765;28;20548;-51
2020/12/20 02:11:21;;;;;;;1.92;1.83;;;;;;;;;;5095176;28;20269;-51
2020/12/20 02:13:48;;;;;;;2.17;1.90;;;;;;;;;;5087616;28;20584;-52
2020/12/20 02:16:15;;;;;;;1.85;1.73;;;;;;;;;;5097002;28;20206;-51
2020/12/20 02:18:41;;;;;;;2.08;1.85;;;;;;;;;;5099000;28;20224;-51
2020/12/20 02:21:11;;;;;;;1.73;1.63;;;;;;;;;;5098379;28;20182;-51
2020/12/20 02:23:42;;;;;;;1.70;1.60;;;;;;;;;;5096595;28;20632;-51
2020/12/20 02:26:08;;;;;;;1.70;1.60;;;;;;;;;;5093228;28;20185;-51
2020/12/20 02:28:34;;;;;;;1.63;1.52;;;;;;;;;;5089043;28;20577;-51
2020/12/20 02:31:00;;;;;;;1.98;1.88;;;;;;;;;;5098515;28;20173;-51
2020/12/20 02:33:26;;;;;;;1.80;1.70;;;;;;;;;;5098296;28;20196;-51
2020/12/20 02:35:52;;;;;;;1.52;1.42;;;;;;;;;;5097557;28;20201;-51
2020/12/20 02:38:18;;;;;;;1.70;1.60;;;;;;;;;;5097981;28;20679;-51
2020/12/20 02:40:44;;;;;;;1.88;1.77;;;;;;;;;;5098332;28;20171;-52
2020/12/20 02:43:10;;;;;;;1.88;1.77;;;;;;;;;;5090701;28;20178;-51
2020/12/20 02:45:36;;;;;;;1.70;1.60;;;;;;;;;;5094230;28;20193;-51
2020/12/20 02:48:02;;;;;;;1.77;1.67;;;;;;;;;;5095310;28;20451;-51
2020/12/20 02:50:28;;;;;;;1.70;1.60;;;;;;;;;;5082402;28;20217;-51
2020/12/20 02:52:54;;;;;;;1.60;1.50;;;;;;;;;;5077352;28;20249;-51
2020/12/20 02:55:20;;;;;;;1.60;1.50;;;;;;;;;;5092408;28;20197;-52
2020/12/20 02:57:46;;;;;;;1.60;1.50;;;;;;;;;;5096598;28;20219;-51
2020/12/20 03:00:13;;;;;;;1.52;1.42;;;;;;;;;;5096131;28;20610;-51
2020/12/20 03:02:39;;;;;;;1.58;1.40;;;;;;;;;;5077651;28;20193;-52
2020/12/20 03:05:05;;;;;;;1.60;1.50;;;;;;;;;;5077038;28;20262;-51
2020/12/20 03:07:31;;;;;;;1.58;1.48;;;;;;;;;;5091922;28;20178;-51
2020/12/20 03:09:57;;;;;;;1.50;1.40;;;;;;;;;;5097507;28;20192;-51
2020/12/20 03:12:23;;;;;;;1.40;1.30;;;;;;;;;;5081736;28;20178;-51
2020/12/20 03:14:49;;;;;;;1.73;1.63;;;;;;;;;;5076683;28;20198;-51
2020/12/20 03:17:16;;;;;;;1.45;1.35;;;;;;;;;;5088764;28;20588;-51
2020/12/20 03:19:42;;;;;;;1.40;1.30;;;;;;;;;;5097486;28;20181;-51
2020/12/20 03:22:08;;;;;;;1.73;1.50;;;;;;;;;;5097565;28;20464;-51
2020/12/20 03:24:33;;;;;;;1.70;1.60;;;;;;;;;;5097104;28;20201;-51
2020/12/20 03:26:59;;;;;;;1.50;1.40;;;;;;;;;;5095398;28;20181;-52
2020/12/20 03:29:25;;;;;;;1.60;1.50;;;;;;;;;;5097851;28;20174;-51
2020/12/20 03:31:51;;;;;;;1.40;1.30;;;;;;;;;;5097027;28;20219;-51
2020/12/20 03:34:17;;;;;;;1.60;1.50;;;;;;;;;;5096837;28;20182;-51
2020/12/20 03:36:43;;;;;;;1.45;1.35;;;;;;;;;;5096816;28;20265;-51
2020/12/20 03:39:09;;;;;;;1.70;1.60;;;;;;;;;;5081180;28;20442;-51
2020/12/20 03:41:35;;;;;;;1.30;1.20;;;;;;;;;;5081597;28;20487;-51
2020/12/20 03:44:01;;;;;;;1.23;1.20;;;;;;;;;;5076775;28;20171;-51
2020/12/20 03:46:27;;;;;;;1.13;1.13;;;;;;;;;;5094909;28;20489;-51
2020/12/20 03:48:53;;;;;;;1.50;1.40;;;;;;;;;;5112644;28;20183;-51
2020/12/20 03:51:19;;;;;;;1.42;1.35;;;;;;;;;;5117489;28;20467;-51
2020/12/20 03:53:45;;;;;;;1.40;1.35;;;;;;;;;;5107673;28;20303;-51
2020/12/20 03:56:11;;;;;;;1.20;1.20;;;;;;;;;;5095184;28;20586;-51
2020/12/20 03:58:37;;;;;;;1.45;1.35;;;;;;;;;;5096150;28;20183;-51
2020/12/20 04:01:03;;;;;;;1.50;1.40;;;;;;;;;;5096282;28;20211;-50
2020/12/20 04:03:29;;;;;;;1.85;1.52;;;;;;;;;;5096991;28;20165;-51
2020/12/20 04:05:56;;;;;;;1.50;1.40;;;;;;;;;;5096132;28;20182;-51
2020/12/20 04:08:22;;;;;;;1.58;1.48;;;;;;;;;;5094624;28;20217;-51
2020/12/20 04:10:48;;;;;;;1.20;1.10;;;;;;;;;;5096421;28;20213;-51
2020/12/20 04:13:14;;;;;;;1.38;1.27;;;;;;;;;;5096824;28;20239;-51
2020/12/20 04:15:39;;;;;;;1.60;1.50;;;;;;;;;;5095220;28;20201;-51
2020/12/20 04:18:05;;;;;;;1.30;1.20;;;;;;;;;;5094869;28;20637;-51
2020/12/20 04:20:31;;;;;;;1.33;1.25;;;;;;;;;;5096346;28;20254;-51
2020/12/20 04:22:57;;;;;;;1.30;1.20;;;;;;;;;;5080054;28;20197;-50
2020/12/20 04:25:23;;;;;;;1.50;1.40;;;;;;;;;;5075694;28;20174;-51
2020/12/20 04:27:50;;;;;;;1.48;1.38;;;;;;;;;;5090396;28;20850;-51
2020/12/20 04:30:16;;;;;;;1.80;1.20;;;;;;;;;;5096147;28;20174;-52
2020/12/20 04:32:42;;;;;;;1.52;1.42;;;;;;;;;;5096264;28;20229;-52
2020/12/20 04:35:09;;;;;;;1.10;1.00;;;;;;;;;;5095658;28;20221;-51
2020/12/20 04:37:35;;;;;;;1.40;1.30;;;;;;;;;;5084138;28;20455;-53
2020/12/20 04:40:02;;;;;;;1.27;1.00;;;;;;;;;;5078908;28;20193;-51
2020/12/20 04:42:28;;;;;;;1.60;1.50;;;;;;;;;;5080703;28;20223;-51
2020/12/20 04:44:54;;;;;;;1.73;1.10;;;;;;;;;;5073960;28;20273;-52
2020/12/20 04:47:21;;;;;;;1.35;1.20;;;;;;;;;;5089653;28;20568;-51
2020/12/20 04:49:48;;;;;;;1.30;1.20;;;;;;;;;;5111786;28;20502;-51
2020/12/20 04:52:14;;;;;;;1.98;1.27;;;;;;;;;;5095810;28;20191;-51
2020/12/20 04:54:40;;;;;;;1.35;1.27;;;;;;;;;;5095333;28;20202;-53
2020/12/20 04:57:07;;;;;;;1.20;1.10;;;;;;;;;;5095234;28;20216;-52
2020/12/20 04:59:34;;;;;;;1.27;1.17;;;;;;;;;;5094779;28;20186;-51
2020/12/20 05:02:00;;;;;;;1.25;1.13;;;;;;;;;;5086334;28;20243;-52
2020/12/20 05:04:26;;;;;;;1.88;1.20;;;;;;;;;;5082040;28;20663;-51
2020/12/20 05:06:52;;;;;;;1.65;1.10;;;;;;;;;;5095225;28;20223;-51
2020/12/20 05:09:18;;;;;;;1.10;1.10;;;;;;;;;;5095027;28;20181;-51
2020/12/20 05:11:44;;;;;;;1.40;1.30;;;;;;;;;;5095419;28;20440;-51
2020/12/20 05:14:13;;;;;;;1.20;1.10;;;;;;;;;;5094658;28;20687;-51
2020/12/20 05:16:40;;;;;;;1.38;1.27;;;;;;;;;;5095098;28;20177;-51
2020/12/20 05:19:07;;;;;;;1.20;1.10;;;;;;;;;;5083590;28;20430;-52
2020/12/20 05:21:34;;;;;;;1.20;1.10;;;;;;;;;;5095621;28;20261;-52
2020/12/20 05:24:01;;;;;;;1.30;1.20;;;;;;;;;;5093394;28;20182;-51
2020/12/20 05:26:27;;;;;;;1.98;1.10;;;;;;;;;;5094933;28;20234;-51
2020/12/20 05:29:06;;;;;;;0.93;0.93;;;;;;;;;;5094427;28;20196;-51
2020/12/20 05:31:32;;;;;;;1.10;1.00;;;;;;;;;;5095674;28;20231;-51
2020/12/20 05:33:58;;;;;;;1.00;1.00;;;;;;;;;;5077868;28;20194;-51
2020/12/20 05:36:25;;;;;;;1.30;1.20;;;;;;;;;;5083957;28;20243;-51
2020/12/20 05:38:52;;;;;;;2.00;1.13;;;;;;;;;;5097578;28;20202;-51
2020/12/20 05:41:30;;;;;;;1.15;1.05;;;;;;;;;;5098911;28;20235;-52
2020/12/20 05:44:13;;;;;;;1.30;1.20;;;;;;;;;;5098860;28;20170;-51
2020/12/20 05:46:40;;;;;;;1.50;1.20;;;;;;;;;;5092474;28;20177;-51
2020/12/20 05:49:16;;;;;;;5.43;3.08;;;;;;;;;;5086893;28;20182;-51
2020/12/20 05:52:02;;;;;;;8.07;4.05;;;;;;;;;;5079056;28;20201;-51
2020/12/20 05:54:31;;;;;;;13.40;5.57;;;;;;;;;;5078553;28;20174;-51
2020/12/20 05:57:15;;;;;;;17.83;7.78;;;;;;;;;;5078769;28;20179;-45
2020/12/20 05:59:42;;;;;;;19.75;7.28;;;;;;;;;;5096600;28;20186;-46
2020/12/20 06:02:08;;;;;;;18.08;7.65;;;;;;;;;;5098608;28;20529;-45
2020/12/20 07:03:30;;;;;;;35.10;19.58;;;;;;;;;;5094466;28;20547;-46
2020/12/20 07:05:57;;;;;;;36.53;17.67;;;;;;;;;;5093641;28;20185;-45
2020/12/20 07:08:33;;;;;;;31.20;17.98;;;;;;;;;;5093768;28;20197;-46
2020/12/20 07:11:00;;;;;;;31.08;19.05;;;;;;;;;;5093076;28;20205;-45
2020/12/20 07:13:39;;;;;;;34.95;18.98;;;;;;;;;;5093709;28;20166;-45
2020/12/20 07:16:05;;;;;;;38.80;21.15;;;;;;;;;;5088207;28;20185;-46
2020/12/20 07:18:50;;;;;;;36.50;20.23;;;;;;;;;;5092399;28;20210;-45
2020/12/20 07:21:19;;;;;;;35.83;19.52;;;;;;;;;;5092971;28;20284;-45
2020/12/20 07:23:49;;;;;;;33.92;18.98;;;;;;;;;;5088116;28;20206;-44
2020/12/20 07:26:16;;;;;;;31.73;20.20;;;;;;;;;;5072361;28;20510;-46
2020/12/20 07:28:43;;;;;;;36.90;20.60;;;;;;;;;;5072666;28;20203;-44
2020/12/20 07:31:19;;;;;;;31.90;19.35;;;;;;;;;;5072618;28;20759;-46
2020/12/20 07:33:45;;;;;;;31.88;20.23;;;;;;;;;;5072683;28;20477;-45
2020/12/20 07:36:11;;;;;;;30.02;18.58;;;;;;;;;;5080763;28;20553;-44
2020/12/20 07:38:37;;;;;;;34.75;19.17;;;;;;;;;;5093027;28;20501;-46
2020/12/20 07:41:09;;;;;;;33.25;19.77;;;;;;;;;;5083540;28;20446;-45
2020/12/20 07:43:35;;;;;;;25.48;17.88;;;;;;;;;;5072071;28;20210;-44
2020/12/20 07:46:04;;;;;;;29.88;18.17;;;;;;;;;;5070819;28;20495;-46
2020/12/20 07:48:30;;;;;;;36.30;19.13;;;;;;;;;;5077798;28;20262;-45
2020/12/20 07:51:11;;;;;;;30.90;18.00;;;;;;;;;;5081223;28;20527;-47
2020/12/20 07:53:38;;;;;;;28.92;17.77;;;;;;;;;;5079564;28;20221;-48
2020/12/20 07:56:04;;;;;;;29.08;17.38;;;;;;;;;;5089858;28;20178;-46
2020/12/20 07:58:30;;;;;;;23.65;17.15;;;;;;;;;;5091865;28;20441;-48
2020/12/20 08:01:06;;;;;;;26.45;16.58;;;;;;;;;;5085908;28;20261;-47
2020/12/20 08:03:32;;;;;;;26.23;16.48;;;;;;;;;;5077307;28;20182;-48
2020/12/20 08:06:11;;;;;;;25.42;15.82;;;;;;;;;;5071276;28;20170;-48
2020/12/20 08:08:37;;;;;;;27.13;15.80;;;;;;;;;;5077279;28;20193;-46
2020/12/20 08:11:05;;;;;;;26.38;15.50;;;;;;;;;;5071420;28;20249;-45
2020/12/20 08:13:31;;;;;;;26.52;15.40;;;;;;;;;;5065040;28;20185;-46
2020/12/20 08:15:58;;;;;;;26.38;16.10;;;;;;;;;;5057233;28;20186;-44
2020/12/20 08:18:24;;;;;;;27.70;15.82;;;;;;;;;;5058930;28;20183;-47
2020/12/20 08:20:50;;;;;;;24.23;14.82;;;;;;;;;;5067493;28;20222;-49
2020/12/20 08:23:17;;;;;;;26.08;15.23;;;;;;;;;;5062897;28;20207;-46
2020/12/20 08:25:43;;;;;;;22.55;14.70;;;;;;;;;;5059255;28;20183;-46
2020/12/20 08:28:10;;;;;;;22.98;13.48;;;;;;;;;;5058189;28;20179;-46
2020/12/20 08:30:37;;;;;;;20.27;12.63;;;;;;;;;;5059280;28;20233;-47
2020/12/20 08:33:03;;;;;;;19.42;12.02;;;;;;;;;;5072198;28;20194;-49
2020/12/20 08:35:29;;;;;;;20.98;11.68;;;;;;;;;;5077430;28;20201;-48
2020/12/20 08:37:57;;;;;;;17.15;11.43;;;;;;;;;;5078184;28;20179;-50
2020/12/20 08:40:23;;;;;;;15.73;10.82;;;;;;;;;;5062700;28;20274;-47
2020/12/20 08:42:53;;;;;;;17.55;11.18;;;;;;;;;;5061604;28;20230;-46
2020/12/20 08:45:20;;;;;;;15.73;10.63;;;;;;;;;;5071163;28;20186;-49
2020/12/20 08:47:46;;;;;;;18.15;10.65;;;;;;;;;;5071070;28;20266;-50
2020/12/20 08:50:13;;;;;;;15.15;10.57;;;;;;;;;;5072273;28;20612;-48
2020/12/20 08:52:39;;;;;;;15.45;10.25;;;;;;;;;;5064651;28;20221;-46
2020/12/20 08:55:06;;;;;;;13.45;10.10;;;;;;;;;;5057476;28;20179;-49
2020/12/20 08:57:33;;;;;;;12.32;9.73;;;;;;;;;;5058132;28;20493;-49
2020/12/20 09:00:17;;;;;;;17.00;9.27;;;;;;;;;;5062078;28;20179;-50
2020/12/20 09:02:43;;;;;;;14.77;8.82;;;;;;;;;;5076232;28;20281;-47
2020/12/20 09:05:13;;;;;;;18.50;8.88;;;;;;;;;;5075912;28;20181;-47
2020/12/20 09:07:47;;;;;;;11.95;8.15;;;;;;;;;;5062787;28;20178;-47
2020/12/20 09:10:15;;;;;;;14.15;8.02;;;;;;;;;;5059524;28;20183;-46
2020/12/20 09:12:52;;;;;;;14.52;8.70;;;;;;;;;;5063598;28;20560;-46
2020/12/20 09:15:18;;;;;;;14.63;8.27;;;;;;;;;;5062520;28;20194;-45
2020/12/20 09:17:45;;;;;;;12.93;8.07;;;;;;;;;;5064906;28;20179;-44
2020/12/20 09:20:13;;;;;;;10.23;7.88;;;;;;;;;;5076975;28;20205;-44
2020/12/20 09:22:43;;;;;;;13.88;7.70;;;;;;;;;;5072507;28;20551;-44
2020/12/20 09:25:09;;;;;;;12.30;7.80;;;;;;;;;;5055693;28;20559;-44
2020/12/20 09:27:35;;;;;;;14.02;7.30;;;;;;;;;;5057901;28;21418;-45
2020/12/20 09:30:02;;;;;;;11.88;7.10;;;;;;;;;;5060418;28;20236;-45
2020/12/20 09:32:35;;;;;;;12.93;7.80;;;;;;;;;;5067545;28;20178;-45
2020/12/20 09:35:10;;;;;;;11.70;7.70;;;;;;;;;;5076686;28;20162;-45
2020/12/20 09:37:40;;;;;;;11.07;7.22;;;;;;;;;;5073209;28;20205;-45
2020/12/20 09:40:06;;;;;;;15.57;7.57;;;;;;;;;;5056971;28;20277;-44
2020/12/20 09:42:39;;;;;;;11.32;7.13;;;;;;;;;;5056655;28;20190;-44
2020/12/20 09:45:05;;;;;;;11.57;7.95;;;;;;;;;;5065887;28;20184;-44
2020/12/20 09:47:36;;;;;;;12.02;6.85;;;;;;;;;;5071990;28;20181;-44
2020/12/20 09:50:02;;;;;;;10.90;7.10;;;;;;;;;;5076576;28;20616;-44
2020/12/20 09:52:28;;;;;;;11.73;6.57;;;;;;;;;;5076566;28;20174;-45
2020/12/20 09:54:54;;;;;;;9.57;6.80;;;;;;;;;;5075924;28;20178;-45
2020/12/20 09:57:20;;;;;;;9.98;6.63;;;;;;;;;;5075537;28;20181;-45
2020/12/20 09:59:46;;;;;;;10.75;6.20;;;;;;;;;;5056458;28;20179;-45
2020/12/20 10:02:12;;;;;;;8.52;6.53;;;;;;;;;;5072212;28;20202;-45
2020/12/20 10:04:38;;;;;;;8.80;6.38;;;;;;;;;;5074943;28;20572;-44
2020/12/20 10:07:04;;;;;;;11.30;6.53;;;;;;;;;;5077551;28;20427;-44
2020/12/20 10:09:30;;;;;;;9.52;6.15;;;;;;;;;;5075439;28;20182;-44
2020/12/20 10:11:55;;;;;;;7.68;5.70;;;;;;;;;;5075200;28;20220;-44
2020/12/20 10:14:21;;;;;;;10.38;5.72;;;;;;;;;;5075628;28;20174;-44
2020/12/20 10:16:51;;;;;;;8.85;5.60;;;;;;;;;;5075683;28;20186;-44
2020/12/20 10:19:17;;;;;;;8.38;5.28;;;;;;;;;;5059519;28;20216;-44
2020/12/20 10:21:47;;;;;;;9.02;5.03;;;;;;;;;;5062229;28;20238;-44
2020/12/20 10:24:13;;;;;;;6.47;4.93;;;;;;;;;;5075387;28;20452;-44
2020/12/20 10:26:40;;;;;;;7.75;4.53;;;;;;;;;;5075790;28;20597;-44
2020/12/20 10:29:06;;;;;;;8.02;4.70;;;;;;;;;;5062128;28;20376;-45
2020/12/20 10:31:32;;;;;;;7.40;4.78;;;;;;;;;;5056345;28;20186;-45
2020/12/20 10:33:58;;;;;;;7.43;4.50;;;;;;;;;;5075631;28;20183;-45
2020/12/20 10:36:24;;;;;;;11.35;4.40;;;;;;;;;;5070023;28;20277;-45
2020/12/20 10:38:50;;;;;;;7.85;4.63;;;;;;;;;;5064696;28;20183;-45
2020/12/20 10:41:16;;;;;;;7.95;4.07;;;;;;;;;;5055451;28;20190;-45
2020/12/20 10:43:42;;;;;;;6.32;4.57;;;;;;;;;;5064490;28;20187;-45
2020/12/20 10:46:08;;;;;;;6.70;4.47;;;;;;;;;;5074582;28;20209;-45
2020/12/20 10:48:34;;;;;;;7.13;4.63;;;;;;;;;;5070039;28;20643;-45
2020/12/20 10:51:00;;;;;;;8.65;4.63;;;;;;;;;;5075138;28;20287;-45
2020/12/20 10:53:26;;;;;;;7.85;4.28;;;;;;;;;;5074557;28;20248;-45
2020/12/20 10:55:52;;;;;;;6.15;4.00;;;;;;;;;;5058847;28;20293;-45
2020/12/20 10:58:18;;;;;;;6.85;4.10;;;;;;;;;;5061290;28;20338;-44
2020/12/20 11:00:44;;;;;;;6.25;3.92;;;;;;;;;;5075787;28;20179;-44
2020/12/20 11:03:10;;;;;;;5.20;3.78;;;;;;;;;;5057613;28;20195;-44
2020/12/20 11:05:36;;;;;;;5.50;3.88;;;;;;;;;;5055073;28;20214;-44
2020/12/20 11:08:02;;;;;;;7.10;3.92;;;;;;;;;;5062340;28;20223;-44
2020/12/20 11:10:28;;;;;;;8.63;4.57;;;;;;;;;;5065503;28;20198;-44
2020/12/20 11:12:54;;;;;;;14.43;6.00;;;;;;;;;;5065581;28;20191;-44
2020/12/20 11:15:20;;;;;;;25.23;8.82;;;;;;;;;;5054215;28;20179;-44
2020/12/20 11:17:46;;;;;;;26.73;8.07;;;;;;;;;;5056312;28;20304;-45
2020/12/20 11:20:12;;;;;;;32.60;9.00;;;;;;;;;;5063078;28;20273;-45
2020/12/20 11:22:38;;;;;;;23.75;7.18;;;;;;;;;;5067198;28;20209;-45
2020/12/20 11:25:05;;;;;;;20.27;7.93;;;;;;;;;;5074692;28;20175;-44
2020/12/20 11:27:30;;;;;;;27.45;8.32;;;;;;;;;;5069749;28;20231;-45
2020/12/20 11:29:56;;;;;;;22.27;8.18;;;;;;;;;;5062763;28;20431;-45
2020/12/20 11:32:22;;;;;;;22.55;8.50;;;;;;;;;;5075265;28;20179;-45
2020/12/20 11:34:48;;;;;;;23.88;8.38;;;;;;;;;;5072775;28;20193;-44
2020/12/20 11:37:15;;;;;;;24.13;9.60;;;;;;;;;;5055148;28;20187;-44
2020/12/20 11:39:42;;;;;;;18.33;7.97;;;;;;;;;;5062186;28;20191;-44
2020/12/20 11:42:10;;;;;;;22.48;7.45;;;;;;;;;;5056675;28;20198;-44
2020/12/20 11:44:36;;;;;;;21.58;7.90;;;;;;;;;;5069292;28;20232;-44
2020/12/20 11:47:02;;;;;;;17.23;7.57;;;;;;;;;;5057274;28;20481;-44
2020/12/20 11:49:27;;;;;;;155.55;32.45;;;;;;;;;;5070447;28;20290;-44
2020/12/20 11:51:55;;;;;;;91.30;23.17;;;;;;;;;;5078389;28;20232;-44
2020/12/20 11:54:21;;;;;;;63.03;16.48;;;;;;;;;;5059702;28;20197;-44
2020/12/20 11:56:47;;;;;;;56.03;17.35;;;;;;;;;;5059595;28;20179;-44
2020/12/20 11:59:13;;;;;;;72.00;18.92;;;;;;;;;;5067434;28;20228;-44
2020/12/20 12:01:39;;;;;;;62.10;21.40;;;;;;;;;;5071805;28;20208;-44
2020/12/20 12:04:05;;;;;;;70.25;23.05;;;;;;;;;;5064512;28;20186;-44
2020/12/20 12:06:31;;;;;;;64.70;25.10;;;;;;;;;;5057712;28;20608;-44
2020/12/20 12:08:57;;;;;;;78.45;28.05;;;;;;;;;;5074564;28;20167;-44
2020/12/20 12:11:23;;;;;;;78.40;29.92;;;;;;;;;;5071618;28;20561;-45
2020/12/20 12:13:49;;;;;;;75.93;31.63;;;;;;;;;;5058142;28;20226;-45
2020/12/20 12:16:19;;;;;;;80.05;31.15;;;;;;;;;;5060932;28;20318;-45
2020/12/20 12:18:45;;;;;;;76.25;31.45;;;;;;;;;;5066027;28;20182;-45
2020/12/20 12:21:16;;;;;;;68.18;30.70;;;;;;;;;;5063913;28;20218;-45
2020/12/20 12:23:42;;;;;;;67.10;31.58;;;;;;;;;;5069096;28;20183;-45
2020/12/20 12:26:08;;;;;;;64.03;29.77;;;;;;;;;;5057826;28;20551;-45
2020/12/20 12:28:34;;;;;;;75.22;30.33;;;;;;;;;;5069852;28;20178;-45
2020/12/20 12:31:00;;;;;;;72.68;29.58;;;;;;;;;;5078123;28;20174;-45
2020/12/20 12:33:26;;;;;;;70.10;31.65;;;;;;;;;;5065831;28;20476;-45
2020/12/20 12:35:52;;;;;;;67.32;30.88;;;;;;;;;;5057558;28;20330;-45
2020/12/20 12:38:18;;;;;;;63.72;29.50;;;;;;;;;;5059235;28;20182;-45
2020/12/20 12:40:44;;;;;;;70.28;29.42;;;;;;;;;;5072934;28;20194;-45
2020/12/20 12:43:10;;;;;;;58.80;28.33;;;;;;;;;;5058370;28;20198;-45
2020/12/20 12:45:36;;;;;;;66.32;28.00;;;;;;;;;;5056944;28;20459;-45
2020/12/20 12:48:06;;;;;;;61.20;28.77;;;;;;;;;;5065455;28;20166;-44
2020/12/20 12:50:32;;;;;;;62.05;27.27;;;;;;;;;;5062594;28;20202;-44
2020/12/20 12:52:58;;;;;;;56.15;28.20;;;;;;;;;;5057860;28;20275;-44
2020/12/20 12:55:24;;;;;;;59.67;26.83;;;;;;;;;;5057161;28;20198;-44
2020/12/20 12:57:50;;;;;;;53.15;26.17;;;;;;;;;;5064962;28;20414;-44
2020/12/20 13:00:16;;;;;;;53.20;26.92;;;;;;;;;;5068681;28;20182;-44
2020/12/20 13:02:42;;;;;;;49.40;26.02;;;;;;;;;;5070100;28;20210;-44
2020/12/20 13:05:08;;;;;;;49.50;24.95;;;;;;;;;;5057322;28;20175;-44
2020/12/20 13:07:34;;;;;;;50.72;25.33;;;;;;;;;;5076777;28;20281;-44
2020/12/20 13:10:00;;;;;;;53.17;25.40;;;;;;;;;;5068477;28;20187;-45
2020/12/20 13:12:26;;;;;;;52.22;25.42;;;;;;;;;;5068849;28;20178;-45
2020/12/20 13:14:52;;;;;;;45.35;23.38;;;;;;;;;;5064202;28;20194;-45
2020/12/20 13:17:18;;;;;;;48.42;22.27;;;;;;;;;;5056391;28;20179;-45
2020/12/20 13:19:45;;;;;;;47.15;23.02;;;;;;;;;;5071279;28;20214;-45
2020/12/20 13:22:11;;;;;;;46.78;23.08;;;;;;;;;;5071452;28;20223;-45
2020/12/20 13:24:36;;;;;;;44.95;22.65;;;;;;;;;;5056469;28;20468;-45
2020/12/20 13:27:02;;;;;;;42.75;21.83;;;;;;;;;;5056943;28;20179;-44
2020/12/20 13:29:29;;;;;;;42.70;21.27;;;;;;;;;;5068231;28;20204;-44
2020/12/20 13:31:55;;;;;;;39.83;21.48;;;;;;;;;;5075916;28;20183;-44
2020/12/20 13:34:21;;;;;;;41.10;21.55;;;;;;;;;;5076817;28;20437;-44
2020/12/20 13:36:46;;;;;;;41.35;21.60;;;;;;;;;;5075316;28;20175;-44
2020/12/20 13:39:13;;;;;;;38.88;19.52;;;;;;;;;;5075485;28;20193;-44
2020/12/20 13:41:38;;;;;;;40.00;20.25;;;;;;;;;;5073682;28;20195;-44
2020/12/20 13:44:05;;;;;;;40.22;20.08;;;;;;;;;;5076286;28;20227;-44
2020/12/20 13:46:30;;;;;;;34.55;18.73;;;;;;;;;;5075486;28;20170;-45
2020/12/20 13:48:56;;;;;;;35.33;18.23;;;;;;;;;;5076045;28;20194;-45
2020/12/20 13:51:23;;;;;;;35.13;18.60;;;;;;;;;;5073783;28;20702;-45
2020/12/20 13:53:49;;;;;;;34.33;17.73;;;;;;;;;;5056281;28;20446;-45
2020/12/20 13:56:15;;;;;;;32.22;17.75;;;;;;;;;;5068689;28;20183;-45
2020/12/20 13:58:42;;;;;;;36.78;18.80;;;;;;;;;;5071495;28;20172;-45
2020/12/20 14:01:08;;;;;;;27.52;15.65;;;;;;;;;;5056131;28;20546;-45
2020/12/20 14:03:34;;;;;;;30.27;15.95;;;;;;;;;;5056385;28;20278;-45
2020/12/20 14:06:02;;;;;;;32.03;16.42;;;;;;;;;;5066620;28;20186;-45
2020/12/20 14:08:28;;;;;;;26.40;15.98;;;;;;;;;;5072360;28;20186;-45
2020/12/20 14:10:54;;;;;;;28.13;14.90;;;;;;;;;;5055829;28;20187;-44
2020/12/20 14:13:20;;;;;;;26.52;14.80;;;;;;;;;;5067028;28;20191;-44
2020/12/20 14:15:46;;;;;;;27.10;14.52;;;;;;;;;;5064037;28;20186;-45
2020/12/20 14:18:12;;;;;;;28.90;14.63;;;;;;;;;;5070068;28;20231;-45
2020/12/20 14:20:39;;;;;;;29.15;15.05;;;;;;;;;;5072967;28;20776;-45
2020/12/20 14:23:05;;;;;;;20.42;12.18;;;;;;;;;;5075974;28;20205;-45
2020/12/20 14:25:32;;;;;;;23.65;13.27;;;;;;;;;;5075575;28;20249;-45
2020/12/20 14:27:58;;;;;;;20.60;12.32;;;;;;;;;;5075900;28;20262;-45
2020/12/20 14:30:24;;;;;;;20.77;11.32;;;;;;;;;;5058618;28;20201;-45
2020/12/20 14:32:50;;;;;;;21.35;11.02;;;;;;;;;;5056020;28;20187;-45
2020/12/20 14:35:16;;;;;;;21.30;11.05;;;;;;;;;;5055406;28;20569;-45
2020/12/20 14:37:42;;;;;;;16.75;10.38;;;;;;;;;;5055398;28;20178;-44
2020/12/20 14:40:08;;;;;;;21.17;11.25;;;;;;;;;;5056922;28;20260;-45
2020/12/20 14:42:34;;;;;;;21.73;11.95;;;;;;;;;;5054654;28;20234;-45
2020/12/20 14:45:01;;;;;;;19.70;11.43;;;;;;;;;;5057463;28;20179;-45
2020/12/20 14:47:27;;;;;;;17.98;10.68;;;;;;;;;;5060061;28;20186;-45
2020/12/20 14:49:54;;;;;;;19.00;11.27;;;;;;;;;;5074962;28;20324;-45
2020/12/20 14:52:20;;;;;;;21.50;12.65;;;;;;;;;;5075272;28;20605;-47
2020/12/20 14:54:46;;;;;;;22.10;12.75;;;;;;;;;;5075357;28;20186;-45
2020/12/20 14:57:12;;;;;;;21.70;13.80;;;;;;;;;;5075462;28;20448;-45
2020/12/20 14:59:38;;;;;;;24.15;15.27;;;;;;;;;;5065064;28;20519;-46
2020/12/20 15:02:04;;;;;;;27.00;15.75;;;;;;;;;;5058538;28;20594;-47
2020/12/20 15:04:30;;;;;;;29.45;16.90;;;;;;;;;;5074805;28;20449;-46
2020/12/20 15:06:57;;;;;;;27.95;17.15;;;;;;;;;;5075627;28;20166;-48
2020/12/20 15:09:23;;;;;;;31.45;18.02;;;;;;;;;;5067288;28;20550;-45
2020/12/20 15:11:49;;;;;;;32.65;18.77;;;;;;;;;;5055151;28;20179;-45
2020/12/20 15:14:15;;;;;;;27.05;17.60;;;;;;;;;;5053997;28;20225;-43
2020/12/20 15:16:41;;;;;;;31.73;17.95;;;;;;;;;;5055424;28;20229;-45
2020/12/20 15:19:08;;;;;;;28.30;17.33;;;;;;;;;;5058445;28;20261;-44
2020/12/20 15:21:37;;;;;;;29.80;18.48;;;;;;;;;;5064693;28;20194;-46
2020/12/20 15:24:03;;;;;;;33.90;17.75;;;;;;;;;;5076755;28;20174;-46
2020/12/20 15:26:29;;;;;;;25.33;16.63;;;;;;;;;;5079026;28;20178;-45
2020/12/20 15:28:55;;;;;;;28.63;17.45;;;;;;;;;;5074656;28;20179;-46